sensor_id;sensor_type;location;lat;lon;timestamp;P1;durP1;ratioP1;P2;durP2;ratioP2
56860;SDS011;42744;51.094;3.490;2023-05-25T00:02:22;19.13;;;6.27;;
56860;SDS011;42744;51.094;3.490;2023-05-25T00:04:49;10.37;;;5.97;;
56860;SDS011;42744;51.094;3.490;2023-05-25T00:07:15;16.33;;;6.37;;
56860;SDS011;42744;51.094;3.490;2023-05-25T00:09:41;16.60;;;5.50;;
56860;SDS011;42744;51.094;3.490;2023-05-25T00:12:09;16.13;;;5.90;;
56860;SDS011;42744;51.094;3.490;2023-05-25T00:14:35;16.03;;;5.53;;
56860;SDS011;42744;51.094;3.490;2023-05-25T00:17:01;17.43;;;6.20;;
56860;SDS011;42744;51.094;3.490;2023-05-25T00:19:28;14.03;;;6.03;;
56860;SDS011;42744;51.094;3.490;2023-05-25T00:21:58;13.20;;;5.43;;
56860;SDS011;42744;51.094;3.490;2023-05-25T00:24:27;14.27;;;5.67;;
56860;SDS011;42744;51.094;3.490;2023-05-25T00:26:55;16.33;;;5.80;;
56860;SDS011;42744;51.094;3.490;2023-05-25T00:29:22;11.53;;;5.17;;
56860;SDS011;42744;51.094;3.490;2023-05-25T00:31:48;13.53;;;5.53;;
56860;SDS011;42744;51.094;3.490;2023-05-25T00:34:17;16.50;;;6.83;;
56860;SDS011;42744;51.094;3.490;2023-05-25T00:36:43;15.43;;;5.80;;
56860;SDS011;42744;51.094;3.490;2023-05-25T00:39:18;14.97;;;6.07;;
56860;SDS011;42744;51.094;3.490;2023-05-25T00:41:45;15.17;;;5.90;;
56860;SDS011;42744;51.094;3.490;2023-05-25T00:44:13;15.80;;;6.47;;
56860;SDS011;42744;51.094;3.490;2023-05-25T00:46:43;15.00;;;5.90;;
56860;SDS011;42744;51.094;3.490;2023-05-25T00:49:12;16.63;;;5.93;;
56860;SDS011;42744;51.094;3.490;2023-05-25T00:51:40;13.80;;;6.33;;
56860;SDS011;42744;51.094;3.490;2023-05-25T00:54:12;18.17;;;6.13;;
56860;SDS011;42744;51.094;3.490;2023-05-25T00:56:39;13.67;;;6.37;;
56860;SDS011;42744;51.094;3.490;2023-05-25T00:59:09;13.53;;;6.20;;
56860;SDS011;42744;51.094;3.490;2023-05-25T01:01:39;13.40;;;5.80;;
56860;SDS011;42744;51.094;3.490;2023-05-25T01:04:06;15.80;;;6.33;;
56860;SDS011;42744;51.094;3.490;2023-05-25T01:06:34;21.27;;;6.53;;
56860;SDS011;42744;51.094;3.490;2023-05-25T01:09:03;15.90;;;6.90;;
56860;SDS011;42744;51.094;3.490;2023-05-25T01:11:34;15.03;;;6.80;;
56860;SDS011;42744;51.094;3.490;2023-05-25T01:14:01;14.40;;;5.90;;
56860;SDS011;42744;51.094;3.490;2023-05-25T01:16:28;15.43;;;5.83;;
56860;SDS011;42744;51.094;3.490;2023-05-25T01:18:54;14.70;;;6.70;;
56860;SDS011;42744;51.094;3.490;2023-05-25T01:21:24;14.53;;;6.30;;
56860;SDS011;42744;51.094;3.490;2023-05-25T01:24:32;16.97;;;6.13;;
56860;SDS011;42744;51.094;3.490;2023-05-25T01:27:12;15.07;;;6.23;;
56860;SDS011;42744;51.094;3.490;2023-05-25T01:29:45;14.97;;;5.90;;
56860;SDS011;42744;51.094;3.490;2023-05-25T01:32:12;13.43;;;5.87;;
56860;SDS011;42744;51.094;3.490;2023-05-25T01:34:40;14.57;;;6.40;;
56860;SDS011;42744;51.094;3.490;2023-05-25T01:37:07;15.83;;;5.90;;
56860;SDS011;42744;51.094;3.490;2023-05-25T01:39:34;15.57;;;5.80;;
56860;SDS011;42744;51.094;3.490;2023-05-25T01:42:00;16.20;;;6.03;;
56860;SDS011;42744;51.094;3.490;2023-05-25T01:44:26;10.37;;;5.80;;
56860;SDS011;42744;51.094;3.490;2023-05-25T01:46:57;18.07;;;6.70;;
56860;SDS011;42744;51.094;3.490;2023-05-25T01:50:23;16.67;;;6.80;;
56860;SDS011;42744;51.094;3.490;2023-05-25T01:52:30;13.07;;;5.87;;
56860;SDS011;42744;51.094;3.490;2023-05-25T01:55:02;13.13;;;6.13;;
56860;SDS011;42744;51.094;3.490;2023-05-25T01:57:36;15.27;;;6.60;;
56860;SDS011;42744;51.094;3.490;2023-05-25T02:00:06;14.17;;;6.87;;
56860;SDS011;42744;51.094;3.490;2023-05-25T02:02:39;13.70;;;6.37;;
56860;SDS011;42744;51.094;3.490;2023-05-25T02:05:08;15.43;;;6.83;;
56860;SDS011;42744;51.094;3.490;2023-05-25T02:07:35;14.77;;;6.13;;
56860;SDS011;42744;51.094;3.490;2023-05-25T02:10:02;14.67;;;6.47;;
56860;SDS011;42744;51.094;3.490;2023-05-25T02:12:28;15.27;;;6.37;;
56860;SDS011;42744;51.094;3.490;2023-05-25T02:14:54;18.33;;;6.70;;
56860;SDS011;42744;51.094;3.490;2023-05-25T02:17:20;16.00;;;7.07;;
56860;SDS011;42744;51.094;3.490;2023-05-25T02:19:47;18.93;;;6.50;;
56860;SDS011;42744;51.094;3.490;2023-05-25T02:22:17;16.00;;;6.83;;
56860;SDS011;42744;51.094;3.490;2023-05-25T02:24:44;11.10;;;6.53;;
56860;SDS011;42744;51.094;3.490;2023-05-25T02:27:11;17.20;;;6.40;;
56860;SDS011;42744;51.094;3.490;2023-05-25T02:29:37;11.03;;;6.57;;
56860;SDS011;42744;51.094;3.490;2023-05-25T02:32:03;15.30;;;7.60;;
56860;SDS011;42744;51.094;3.490;2023-05-25T02:34:30;15.13;;;7.00;;
56860;SDS011;42744;51.094;3.490;2023-05-25T02:36:56;18.20;;;6.80;;
56860;SDS011;42744;51.094;3.490;2023-05-25T02:39:24;13.90;;;6.87;;
56860;SDS011;42744;51.094;3.490;2023-05-25T02:41:52;16.47;;;7.20;;
56860;SDS011;42744;51.094;3.490;2023-05-25T02:44:18;16.53;;;7.33;;
56860;SDS011;42744;51.094;3.490;2023-05-25T02:46:44;18.17;;;7.70;;
56860;SDS011;42744;51.094;3.490;2023-05-25T02:49:11;17.53;;;6.93;;
56860;SDS011;42744;51.094;3.490;2023-05-25T02:51:37;10.27;;;6.40;;
56860;SDS011;42744;51.094;3.490;2023-05-25T02:54:03;13.50;;;7.33;;
56860;SDS011;42744;51.094;3.490;2023-05-25T02:56:29;14.57;;;6.33;;
56860;SDS011;42744;51.094;3.490;2023-05-25T02:58:56;16.70;;;7.13;;
56860;SDS011;42744;51.094;3.490;2023-05-25T03:01:22;13.33;;;6.43;;
56860;SDS011;42744;51.094;3.490;2023-05-25T03:03:50;13.53;;;6.77;;
56860;SDS011;42744;51.094;3.490;2023-05-25T03:06:19;15.80;;;7.33;;
56860;SDS011;42744;51.094;3.490;2023-05-25T03:08:51;17.77;;;6.83;;
56860;SDS011;42744;51.094;3.490;2023-05-25T03:11:17;14.40;;;6.77;;
56860;SDS011;42744;51.094;3.490;2023-05-25T03:13:43;15.73;;;7.10;;
56860;SDS011;42744;51.094;3.490;2023-05-25T03:16:10;18.13;;;7.30;;
56860;SDS011;42744;51.094;3.490;2023-05-25T03:18:37;12.30;;;6.40;;
56860;SDS011;42744;51.094;3.490;2023-05-25T03:21:03;15.03;;;6.83;;
56860;SDS011;42744;51.094;3.490;2023-05-25T03:23:29;15.13;;;7.20;;
56860;SDS011;42744;51.094;3.490;2023-05-25T03:25:55;17.87;;;6.53;;
56860;SDS011;42744;51.094;3.490;2023-05-25T03:28:22;13.40;;;7.17;;
56860;SDS011;42744;51.094;3.490;2023-05-25T03:30:49;17.93;;;8.27;;
56860;SDS011;42744;51.094;3.490;2023-05-25T03:33:15;17.80;;;7.43;;
56860;SDS011;42744;51.094;3.490;2023-05-25T03:35:42;16.20;;;7.23;;
56860;SDS011;42744;51.094;3.490;2023-05-25T03:38:08;17.67;;;7.13;;
56860;SDS011;42744;51.094;3.490;2023-05-25T03:40:34;15.30;;;7.30;;
56860;SDS011;42744;51.094;3.490;2023-05-25T03:43:00;13.13;;;6.20;;
56860;SDS011;42744;51.094;3.490;2023-05-25T03:45:27;14.70;;;7.00;;
56860;SDS011;42744;51.094;3.490;2023-05-25T03:47:53;13.73;;;6.57;;
56860;SDS011;42744;51.094;3.490;2023-05-25T03:50:19;15.60;;;7.30;;
56860;SDS011;42744;51.094;3.490;2023-05-25T03:52:45;17.07;;;7.30;;
56860;SDS011;42744;51.094;3.490;2023-05-25T03:55:11;15.33;;;7.53;;
56860;SDS011;42744;51.094;3.490;2023-05-25T03:57:40;15.87;;;6.97;;
56860;SDS011;42744;51.094;3.490;2023-05-25T04:00:06;14.90;;;7.43;;
56860;SDS011;42744;51.094;3.490;2023-05-25T04:02:38;18.43;;;7.97;;
56860;SDS011;42744;51.094;3.490;2023-05-25T04:05:04;16.30;;;8.27;;
56860;SDS011;42744;51.094;3.490;2023-05-25T04:07:31;13.90;;;7.40;;
56860;SDS011;42744;51.094;3.490;2023-05-25T04:09:57;19.03;;;7.80;;
56860;SDS011;42744;51.094;3.490;2023-05-25T04:12:26;17.57;;;7.97;;
56860;SDS011;42744;51.094;3.490;2023-05-25T04:14:53;15.00;;;8.27;;
56860;SDS011;42744;51.094;3.490;2023-05-25T04:17:19;14.60;;;7.53;;
56860;SDS011;42744;51.094;3.490;2023-05-25T04:19:49;11.60;;;7.53;;
56860;SDS011;42744;51.094;3.490;2023-05-25T04:22:16;17.63;;;8.13;;
56860;SDS011;42744;51.094;3.490;2023-05-25T04:24:43;17.00;;;8.17;;
56860;SDS011;42744;51.094;3.490;2023-05-25T04:27:10;12.40;;;7.87;;
56860;SDS011;42744;51.094;3.490;2023-05-25T04:29:39;16.37;;;7.70;;
56860;SDS011;42744;51.094;3.490;2023-05-25T04:32:08;15.90;;;8.07;;
56860;SDS011;42744;51.094;3.490;2023-05-25T04:34:35;14.77;;;7.90;;
56860;SDS011;42744;51.094;3.490;2023-05-25T04:37:02;14.93;;;8.33;;
56860;SDS011;42744;51.094;3.490;2023-05-25T04:39:30;15.03;;;8.40;;
56860;SDS011;42744;51.094;3.490;2023-05-25T04:41:57;16.40;;;8.37;;
56860;SDS011;42744;51.094;3.490;2023-05-25T04:44:23;15.67;;;8.40;;
56860;SDS011;42744;51.094;3.490;2023-05-25T04:46:51;18.93;;;8.83;;
56860;SDS011;42744;51.094;3.490;2023-05-25T04:49:18;13.77;;;8.40;;
56860;SDS011;42744;51.094;3.490;2023-05-25T04:51:45;21.37;;;8.77;;
56860;SDS011;42744;51.094;3.490;2023-05-25T04:54:12;15.50;;;9.17;;
56860;SDS011;42744;51.094;3.490;2023-05-25T04:56:38;16.57;;;8.67;;
56860;SDS011;42744;51.094;3.490;2023-05-25T04:59:04;14.93;;;7.93;;
56860;SDS011;42744;51.094;3.490;2023-05-25T05:01:31;16.33;;;8.93;;
56860;SDS011;42744;51.094;3.490;2023-05-25T05:03:59;20.10;;;9.47;;
56860;SDS011;42744;51.094;3.490;2023-05-25T05:06:25;18.13;;;9.13;;
56860;SDS011;42744;51.094;3.490;2023-05-25T05:08:51;20.87;;;8.90;;
56860;SDS011;42744;51.094;3.490;2023-05-25T05:11:17;19.07;;;10.10;;
56860;SDS011;42744;51.094;3.490;2023-05-25T05:13:43;15.30;;;8.80;;
56860;SDS011;42744;51.094;3.490;2023-05-25T05:16:09;16.70;;;8.80;;
56860;SDS011;42744;51.094;3.490;2023-05-25T05:18:36;17.93;;;9.03;;
56860;SDS011;42744;51.094;3.490;2023-05-25T05:21:02;15.43;;;9.87;;
56860;SDS011;42744;51.094;3.490;2023-05-25T05:23:28;19.10;;;9.23;;
56860;SDS011;42744;51.094;3.490;2023-05-25T05:25:54;17.10;;;9.00;;
56860;SDS011;42744;51.094;3.490;2023-05-25T05:28:20;24.17;;;9.40;;
56860;SDS011;42744;51.094;3.490;2023-05-25T05:30:52;25.60;;;9.10;;
56860;SDS011;42744;51.094;3.490;2023-05-25T05:33:18;21.80;;;9.73;;
56860;SDS011;42744;51.094;3.490;2023-05-25T05:35:45;24.90;;;10.33;;
56860;SDS011;42744;51.094;3.490;2023-05-25T05:38:11;25.93;;;10.27;;
56860;SDS011;42744;51.094;3.490;2023-05-25T05:40:37;18.70;;;9.03;;
56860;SDS011;42744;51.094;3.490;2023-05-25T05:43:03;25.53;;;9.97;;
56860;SDS011;42744;51.094;3.490;2023-05-25T05:45:29;20.50;;;10.00;;
56860;SDS011;42744;51.094;3.490;2023-05-25T05:47:55;20.87;;;10.00;;
56860;SDS011;42744;51.094;3.490;2023-05-25T05:50:22;18.40;;;9.43;;
56860;SDS011;42744;51.094;3.490;2023-05-25T05:52:48;19.20;;;8.60;;
56860;SDS011;42744;51.094;3.490;2023-05-25T05:55:14;21.47;;;9.80;;
56860;SDS011;42744;51.094;3.490;2023-05-25T05:57:40;18.67;;;9.60;;
56860;SDS011;42744;51.094;3.490;2023-05-25T06:00:06;17.93;;;8.90;;
56860;SDS011;42744;51.094;3.490;2023-05-25T06:02:40;16.20;;;9.13;;
56860;SDS011;42744;51.094;3.490;2023-05-25T06:05:08;23.13;;;10.03;;
56860;SDS011;42744;51.094;3.490;2023-05-25T06:07:36;20.00;;;7.90;;
56860;SDS011;42744;51.094;3.490;2023-05-25T06:10:05;19.80;;;8.37;;
56860;SDS011;42744;51.094;3.490;2023-05-25T06:12:32;19.10;;;8.77;;
56860;SDS011;42744;51.094;3.490;2023-05-25T06:14:58;18.10;;;8.00;;
56860;SDS011;42744;51.094;3.490;2023-05-25T06:17:26;15.77;;;7.87;;
56860;SDS011;42744;51.094;3.490;2023-05-25T06:19:54;16.00;;;7.33;;
56860;SDS011;42744;51.094;3.490;2023-05-25T06:22:20;15.43;;;7.63;;
56860;SDS011;42744;51.094;3.490;2023-05-25T06:24:50;15.73;;;7.60;;
56860;SDS011;42744;51.094;3.490;2023-05-25T06:27:16;20.90;;;8.40;;
56860;SDS011;42744;51.094;3.490;2023-05-25T06:29:42;19.03;;;7.40;;
56860;SDS011;42744;51.094;3.490;2023-05-25T06:32:08;12.50;;;7.40;;
56860;SDS011;42744;51.094;3.490;2023-05-25T06:34:37;12.13;;;7.47;;
56860;SDS011;42744;51.094;3.490;2023-05-25T06:37:03;16.73;;;7.10;;
56860;SDS011;42744;51.094;3.490;2023-05-25T06:39:29;14.73;;;7.10;;
56860;SDS011;42744;51.094;3.490;2023-05-25T06:41:56;11.20;;;6.70;;
56860;SDS011;42744;51.094;3.490;2023-05-25T06:44:24;16.33;;;7.73;;
56860;SDS011;42744;51.094;3.490;2023-05-25T06:46:50;14.37;;;6.77;;
56860;SDS011;42744;51.094;3.490;2023-05-25T06:49:16;15.40;;;7.17;;
56860;SDS011;42744;51.094;3.490;2023-05-25T06:51:43;14.70;;;6.43;;
56860;SDS011;42744;51.094;3.490;2023-05-25T06:54:09;17.00;;;7.07;;
56860;SDS011;42744;51.094;3.490;2023-05-25T06:56:36;12.23;;;5.57;;
56860;SDS011;42744;51.094;3.490;2023-05-25T06:59:02;13.77;;;5.90;;
56860;SDS011;42744;51.094;3.490;2023-05-25T07:01:28;10.73;;;5.00;;
56860;SDS011;42744;51.094;3.490;2023-05-25T07:03:54;11.53;;;5.83;;
56860;SDS011;42744;51.094;3.490;2023-05-25T07:06:20;7.93;;;4.53;;
56860;SDS011;42744;51.094;3.490;2023-05-25T07:08:46;10.97;;;5.13;;
56860;SDS011;42744;51.094;3.490;2023-05-25T07:11:12;12.83;;;5.40;;
56860;SDS011;42744;51.094;3.490;2023-05-25T07:13:38;13.37;;;5.63;;
56860;SDS011;42744;51.094;3.490;2023-05-25T07:16:04;11.93;;;5.20;;
56860;SDS011;42744;51.094;3.490;2023-05-25T07:18:31;12.53;;;4.93;;
56860;SDS011;42744;51.094;3.490;2023-05-25T07:20:57;9.97;;;5.20;;
56860;SDS011;42744;51.094;3.490;2023-05-25T07:23:23;9.33;;;4.50;;
56860;SDS011;42744;51.094;3.490;2023-05-25T07:25:49;8.37;;;4.80;;
56860;SDS011;42744;51.094;3.490;2023-05-25T07:28:15;8.20;;;4.07;;
56860;SDS011;42744;51.094;3.490;2023-05-25T07:30:41;13.07;;;4.60;;
56860;SDS011;42744;51.094;3.490;2023-05-25T07:33:07;9.40;;;5.23;;
56860;SDS011;42744;51.094;3.490;2023-05-25T07:35:33;11.97;;;5.47;;
56860;SDS011;42744;51.094;3.490;2023-05-25T07:38:01;8.80;;;4.87;;
56860;SDS011;42744;51.094;3.490;2023-05-25T07:40:31;10.03;;;5.13;;
56860;SDS011;42744;51.094;3.490;2023-05-25T07:42:57;10.83;;;5.53;;
56860;SDS011;42744;51.094;3.490;2023-05-25T07:45:23;13.97;;;5.83;;
56860;SDS011;42744;51.094;3.490;2023-05-25T07:47:49;12.70;;;5.47;;
56860;SDS011;42744;51.094;3.490;2023-05-25T07:50:15;10.97;;;5.00;;
56860;SDS011;42744;51.094;3.490;2023-05-25T07:52:41;11.97;;;5.17;;
56860;SDS011;42744;51.094;3.490;2023-05-25T07:55:07;10.20;;;5.20;;
56860;SDS011;42744;51.094;3.490;2023-05-25T07:57:34;10.97;;;4.97;;
56860;SDS011;42744;51.094;3.490;2023-05-25T08:00:00;8.60;;;4.47;;
56860;SDS011;42744;51.094;3.490;2023-05-25T08:02:26;10.60;;;4.53;;
56860;SDS011;42744;51.094;3.490;2023-05-25T08:04:52;7.63;;;4.43;;
56860;SDS011;42744;51.094;3.490;2023-05-25T08:07:18;8.37;;;4.40;;
56860;SDS011;42744;51.094;3.490;2023-05-25T08:09:45;8.50;;;3.80;;
56860;SDS011;42744;51.094;3.490;2023-05-25T08:12:11;10.63;;;4.90;;
56860;SDS011;42744;51.094;3.490;2023-05-25T08:14:37;8.53;;;4.70;;
56860;SDS011;42744;51.094;3.490;2023-05-25T08:17:03;10.13;;;4.87;;
56860;SDS011;42744;51.094;3.490;2023-05-25T08:19:30;9.27;;;4.50;;
56860;SDS011;42744;51.094;3.490;2023-05-25T08:21:56;7.97;;;4.30;;
56860;SDS011;42744;51.094;3.490;2023-05-25T08:24:22;7.03;;;4.13;;
56860;SDS011;42744;51.094;3.490;2023-05-25T08:26:49;9.73;;;4.53;;
56860;SDS011;42744;51.094;3.490;2023-05-25T08:29:15;8.37;;;3.63;;
56860;SDS011;42744;51.094;3.490;2023-05-25T08:31:42;6.97;;;4.10;;
56860;SDS011;42744;51.094;3.490;2023-05-25T08:34:10;7.63;;;3.97;;
56860;SDS011;42744;51.094;3.490;2023-05-25T08:36:36;9.20;;;4.60;;
56860;SDS011;42744;51.094;3.490;2023-05-25T08:39:02;9.93;;;4.13;;
56860;SDS011;42744;51.094;3.490;2023-05-25T08:41:29;8.60;;;4.07;;
56860;SDS011;42744;51.094;3.490;2023-05-25T08:43:56;6.50;;;3.60;;
56860;SDS011;42744;51.094;3.490;2023-05-25T08:46:29;5.43;;;3.60;;
56860;SDS011;42744;51.094;3.490;2023-05-25T08:49:08;7.57;;;3.50;;
56860;SDS011;42744;51.094;3.490;2023-05-25T08:51:36;9.67;;;4.20;;
56860;SDS011;42744;51.094;3.490;2023-05-25T08:54:05;5.00;;;3.13;;
56860;SDS011;42744;51.094;3.490;2023-05-25T08:56:49;5.70;;;2.80;;
56860;SDS011;42744;51.094;3.490;2023-05-25T09:02:01;5.90;;;3.50;;
56860;SDS011;42744;51.094;3.490;2023-05-25T09:04:44;5.73;;;3.13;;
56860;SDS011;42744;51.094;3.490;2023-05-25T09:07:10;8.23;;;3.40;;
56860;SDS011;42744;51.094;3.490;2023-05-25T09:09:37;5.90;;;3.43;;
56860;SDS011;42744;51.094;3.490;2023-05-25T09:12:04;6.73;;;3.57;;
56860;SDS011;42744;51.094;3.490;2023-05-25T09:14:32;4.97;;;2.93;;
56860;SDS011;42744;51.094;3.490;2023-05-25T09:16:59;7.67;;;2.93;;
56860;SDS011;42744;51.094;3.490;2023-05-25T09:19:26;6.27;;;3.10;;
56860;SDS011;42744;51.094;3.490;2023-05-25T09:21:52;6.03;;;3.70;;
56860;SDS011;42744;51.094;3.490;2023-05-25T09:24:18;7.13;;;3.43;;
56860;SDS011;42744;51.094;3.490;2023-05-25T09:26:46;5.07;;;3.00;;
56860;SDS011;42744;51.094;3.490;2023-05-25T09:29:13;4.57;;;3.03;;
56860;SDS011;42744;51.094;3.490;2023-05-25T09:31:40;5.23;;;2.63;;
56860;SDS011;42744;51.094;3.490;2023-05-25T09:34:11;3.93;;;2.73;;
56860;SDS011;42744;51.094;3.490;2023-05-25T09:36:38;5.07;;;2.93;;
56860;SDS011;42744;51.094;3.490;2023-05-25T09:39:10;4.17;;;2.80;;
56860;SDS011;42744;51.094;3.490;2023-05-25T09:41:41;5.73;;;2.50;;
56860;SDS011;42744;51.094;3.490;2023-05-25T09:44:07;5.20;;;2.13;;
56860;SDS011;42744;51.094;3.490;2023-05-25T09:46:34;4.40;;;2.77;;
56860;SDS011;42744;51.094;3.490;2023-05-25T09:49:03;4.80;;;2.67;;
56860;SDS011;42744;51.094;3.490;2023-05-25T09:51:33;3.63;;;2.73;;
56860;SDS011;42744;51.094;3.490;2023-05-25T09:54:01;4.57;;;2.60;;
56860;SDS011;42744;51.094;3.490;2023-05-25T09:56:29;5.27;;;2.80;;
56860;SDS011;42744;51.094;3.490;2023-05-25T09:58:57;3.87;;;2.43;;
56860;SDS011;42744;51.094;3.490;2023-05-25T10:01:24;5.10;;;3.10;;
56860;SDS011;42744;51.094;3.490;2023-05-25T10:03:51;5.30;;;2.90;;
56860;SDS011;42744;51.094;3.490;2023-05-25T10:06:27;7.13;;;3.20;;
56860;SDS011;42744;51.094;3.490;2023-05-25T10:08:54;3.63;;;2.67;;
56860;SDS011;42744;51.094;3.490;2023-05-25T10:11:22;4.87;;;3.43;;
56860;SDS011;42744;51.094;3.490;2023-05-25T10:13:51;6.03;;;3.40;;
56860;SDS011;42744;51.094;3.490;2023-05-25T10:16:19;7.63;;;3.60;;
56860;SDS011;42744;51.094;3.490;2023-05-25T10:19:11;4.97;;;3.50;;
56860;SDS011;42744;51.094;3.490;2023-05-25T10:21:44;7.27;;;3.67;;
56860;SDS011;42744;51.094;3.490;2023-05-25T10:24:29;4.83;;;3.33;;
56860;SDS011;42744;51.094;3.490;2023-05-25T10:27:07;6.90;;;3.57;;
56860;SDS011;42744;51.094;3.490;2023-05-25T10:29:42;8.47;;;3.87;;
56860;SDS011;42744;51.094;3.490;2023-05-25T10:32:10;5.17;;;2.90;;
56860;SDS011;42744;51.094;3.490;2023-05-25T10:34:37;9.27;;;3.30;;
56860;SDS011;42744;51.094;3.490;2023-05-25T10:37:03;8.00;;;3.00;;
56860;SDS011;42744;51.094;3.490;2023-05-25T10:39:30;5.23;;;2.57;;
56860;SDS011;42744;51.094;3.490;2023-05-25T10:41:58;6.27;;;3.13;;
56860;SDS011;42744;51.094;3.490;2023-05-25T10:44:26;6.00;;;3.40;;
56860;SDS011;42744;51.094;3.490;2023-05-25T10:46:53;6.30;;;3.33;;
56860;SDS011;42744;51.094;3.490;2023-05-25T10:49:32;4.43;;;3.00;;
56860;SDS011;42744;51.094;3.490;2023-05-25T10:52:00;5.03;;;3.43;;
56860;SDS011;42744;51.094;3.490;2023-05-25T10:54:32;5.40;;;3.30;;
56860;SDS011;42744;51.094;3.490;2023-05-25T10:57:07;7.27;;;3.40;;
56860;SDS011;42744;51.094;3.490;2023-05-25T10:59:35;6.63;;;3.63;;
56860;SDS011;42744;51.094;3.490;2023-05-25T11:02:06;6.43;;;3.60;;
56860;SDS011;42744;51.094;3.490;2023-05-25T11:04:32;4.63;;;3.47;;
56860;SDS011;42744;51.094;3.490;2023-05-25T11:09:28;5.50;;;3.50;;
56860;SDS011;42744;51.094;3.490;2023-05-25T11:19:40;8.37;;;3.80;;
56860;SDS011;42744;51.094;3.490;2023-05-25T11:22:14;6.23;;;3.73;;
56860;SDS011;42744;51.094;3.490;2023-05-25T11:24:42;7.20;;;3.70;;
56860;SDS011;42744;51.094;3.490;2023-05-25T11:27:11;7.60;;;3.57;;
56860;SDS011;42744;51.094;3.490;2023-05-25T11:29:38;6.60;;;3.70;;
56860;SDS011;42744;51.094;3.490;2023-05-25T11:32:10;6.60;;;3.50;;
56860;SDS011;42744;51.094;3.490;2023-05-25T11:34:41;8.53;;;4.00;;
56860;SDS011;42744;51.094;3.490;2023-05-25T11:37:17;7.97;;;3.80;;
56860;SDS011;42744;51.094;3.490;2023-05-25T11:39:50;6.43;;;3.30;;
56860;SDS011;42744;51.094;3.490;2023-05-25T11:42:18;7.10;;;4.13;;
56860;SDS011;42744;51.094;3.490;2023-05-25T11:44:48;6.87;;;3.80;;
56860;SDS011;42744;51.094;3.490;2023-05-25T11:47:16;7.97;;;3.70;;
56860;SDS011;42744;51.094;3.490;2023-05-25T11:49:47;6.37;;;3.23;;
56860;SDS011;42744;51.094;3.490;2023-05-25T11:52:17;9.00;;;4.57;;
56860;SDS011;42744;51.094;3.490;2023-05-25T11:54:45;9.50;;;4.20;;
56860;SDS011;42744;51.094;3.490;2023-05-25T11:57:12;7.77;;;4.03;;
56860;SDS011;42744;51.094;3.490;2023-05-25T11:59:38;8.50;;;4.13;;
56860;SDS011;42744;51.094;3.490;2023-05-25T12:02:06;9.23;;;4.30;;
56860;SDS011;42744;51.094;3.490;2023-05-25T12:04:32;9.13;;;4.27;;
56860;SDS011;42744;51.094;3.490;2023-05-25T12:07:06;9.20;;;4.17;;
56860;SDS011;42744;51.094;3.490;2023-05-25T12:09:32;6.17;;;3.53;;
56860;SDS011;42744;51.094;3.490;2023-05-25T12:11:59;7.53;;;4.13;;
56860;SDS011;42744;51.094;3.490;2023-05-25T12:14:27;6.80;;;3.17;;
56860;SDS011;42744;51.094;3.490;2023-05-25T12:16:53;10.13;;;4.50;;
56860;SDS011;42744;51.094;3.490;2023-05-25T12:19:20;7.23;;;4.10;;
56860;SDS011;42744;51.094;3.490;2023-05-25T12:21:46;6.87;;;3.50;;
56860;SDS011;42744;51.094;3.490;2023-05-25T12:24:16;7.47;;;3.87;;
56860;SDS011;42744;51.094;3.490;2023-05-25T12:26:49;6.33;;;3.57;;
56860;SDS011;42744;51.094;3.490;2023-05-25T12:29:21;6.83;;;3.77;;
56860;SDS011;42744;51.094;3.490;2023-05-25T12:31:48;11.07;;;3.85;;
56860;SDS011;42744;51.094;3.490;2023-05-25T12:34:15;8.23;;;3.47;;
56860;SDS011;42744;51.094;3.490;2023-05-25T12:39:14;7.30;;;3.70;;
56860;SDS011;42744;51.094;3.490;2023-05-25T12:41:44;7.90;;;3.87;;
56860;SDS011;42744;51.094;3.490;2023-05-25T12:46:50;8.53;;;4.03;;
56860;SDS011;42744;51.094;3.490;2023-05-25T12:51:55;6.63;;;3.40;;
56860;SDS011;42744;51.094;3.490;2023-05-25T12:54:35;10.10;;;4.07;;
56860;SDS011;42744;51.094;3.490;2023-05-25T12:57:04;7.00;;;3.40;;
56860;SDS011;42744;51.094;3.490;2023-05-25T12:59:31;5.53;;;3.20;;
56860;SDS011;42744;51.094;3.490;2023-05-25T13:01:58;7.50;;;3.95;;
56860;SDS011;42744;51.094;3.490;2023-05-25T13:04:24;9.45;;;3.92;;
56860;SDS011;42744;51.094;3.490;2023-05-25T13:06:51;6.30;;;3.50;;
56860;SDS011;42744;51.094;3.490;2023-05-25T13:09:18;8.85;;;3.60;;
56860;SDS011;42744;51.094;3.490;2023-05-25T13:11:44;5.47;;;3.65;;
56860;SDS011;42744;51.094;3.490;2023-05-25T13:14:11;9.15;;;4.05;;
56860;SDS011;42744;51.094;3.490;2023-05-25T13:16:37;6.55;;;3.50;;
56860;SDS011;42744;51.094;3.490;2023-05-25T13:19:02;10.60;;;3.78;;
56860;SDS011;42744;51.094;3.490;2023-05-25T13:21:29;9.77;;;4.07;;
56860;SDS011;42744;51.094;3.490;2023-05-25T13:23:54;8.05;;;3.67;;
56860;SDS011;42744;51.094;3.490;2023-05-25T13:26:20;5.87;;;3.42;;
56860;SDS011;42744;51.094;3.490;2023-05-25T13:28:47;6.00;;;4.10;;
56860;SDS011;42744;51.094;3.490;2023-05-25T13:31:13;6.68;;;4.18;;
56860;SDS011;42744;51.094;3.490;2023-05-25T13:33:39;13.43;;;3.90;;
56860;SDS011;42744;51.094;3.490;2023-05-25T13:36:05;9.77;;;4.12;;
56860;SDS011;42744;51.094;3.490;2023-05-25T13:38:32;5.53;;;3.45;;
56860;SDS011;42744;51.094;3.490;2023-05-25T13:40:59;7.80;;;4.20;;
56860;SDS011;42744;51.094;3.490;2023-05-25T13:43:25;9.23;;;4.35;;
56860;SDS011;42744;51.094;3.490;2023-05-25T13:45:52;9.18;;;4.50;;
56860;SDS011;42744;51.094;3.490;2023-05-25T13:48:18;8.63;;;5.03;;
56860;SDS011;42744;51.094;3.490;2023-05-25T13:50:44;9.95;;;5.62;;
56860;SDS011;42744;51.094;3.490;2023-05-25T13:53:10;9.02;;;5.30;;
56860;SDS011;42744;51.094;3.490;2023-05-25T13:55:37;7.43;;;5.30;;
56860;SDS011;42744;51.094;3.490;2023-05-25T13:58:04;11.12;;;6.10;;
56860;SDS011;42744;51.094;3.490;2023-05-25T14:00:30;9.05;;;5.60;;
56860;SDS011;42744;51.094;3.490;2023-05-25T14:02:57;17.62;;;7.32;;
56860;SDS011;42744;51.094;3.490;2023-05-25T14:05:23;10.65;;;5.93;;
56860;SDS011;42744;51.094;3.490;2023-05-25T14:07:49;10.60;;;6.47;;
56860;SDS011;42744;51.094;3.490;2023-05-25T14:10:16;9.27;;;5.85;;
56860;SDS011;42744;51.094;3.490;2023-05-25T14:12:43;10.52;;;5.43;;
56860;SDS011;42744;51.094;3.490;2023-05-25T14:15:09;8.85;;;6.07;;
56860;SDS011;42744;51.094;3.490;2023-05-25T14:17:35;13.05;;;6.32;;
56860;SDS011;42744;51.094;3.490;2023-05-25T14:20:01;11.60;;;6.68;;
56860;SDS011;42744;51.094;3.490;2023-05-25T14:22:30;8.77;;;5.70;;
56860;SDS011;42744;51.094;3.490;2023-05-25T14:24:57;8.52;;;5.25;;
56860;SDS011;42744;51.094;3.490;2023-05-25T14:27:23;11.12;;;6.28;;
56860;SDS011;42744;51.094;3.490;2023-05-25T14:29:49;10.13;;;6.12;;
56860;SDS011;42744;51.094;3.490;2023-05-25T14:32:16;11.27;;;6.40;;
56860;SDS011;42744;51.094;3.490;2023-05-25T14:34:43;10.73;;;6.22;;
56860;SDS011;42744;51.094;3.490;2023-05-25T14:37:09;11.52;;;5.97;;
56860;SDS011;42744;51.094;3.490;2023-05-25T14:39:35;11.40;;;6.07;;
56860;SDS011;42744;51.094;3.490;2023-05-25T14:42:02;11.68;;;6.15;;
56860;SDS011;42744;51.094;3.490;2023-05-25T14:44:28;8.95;;;5.62;;
56860;SDS011;42744;51.094;3.490;2023-05-25T14:46:55;13.57;;;6.68;;
56860;SDS011;42744;51.094;3.490;2023-05-25T14:49:21;11.02;;;6.03;;
56860;SDS011;42744;51.094;3.490;2023-05-25T14:51:52;10.57;;;5.80;;
56860;SDS011;42744;51.094;3.490;2023-05-25T14:54:19;6.97;;;5.40;;
56860;SDS011;42744;51.094;3.490;2023-05-25T14:56:45;9.35;;;5.40;;
56860;SDS011;42744;51.094;3.490;2023-05-25T14:59:12;8.98;;;5.22;;
56860;SDS011;42744;51.094;3.490;2023-05-25T15:01:38;11.77;;;5.50;;
56860;SDS011;42744;51.094;3.490;2023-05-25T15:04:04;11.47;;;5.77;;
56860;SDS011;42744;51.094;3.490;2023-05-25T15:06:31;9.77;;;5.55;;